createdAt,value
2023-04-13T00:00:50.278Z,13.13
2023-04-13T00:01:50.344Z,13.10
2023-04-13T00:02:50.468Z,13.10
2023-04-13T00:03:50.436Z,12.99
2023-04-13T00:04:50.361Z,13.05
2023-04-13T00:05:50.557Z,12.98
2023-04-13T00:06:50.426Z,12.97
2023-04-13T00:07:50.434Z,12.81
2023-04-13T00:08:51.234Z,12.84
2023-04-13T00:09:50.528Z,12.90
2023-04-13T00:10:50.503Z,12.66
2023-04-13T00:11:50.523Z,12.62
2023-04-13T00:12:50.611Z,12.45
2023-04-13T00:13:50.606Z,12.60
2023-04-13T00:14:50.614Z,12.48
2023-04-13T00:15:50.613Z,12.44
2023-04-13T00:16:50.751Z,12.36
2023-04-13T00:17:50.681Z,12.23
2023-04-13T00:18:50.687Z,12.29
2023-04-13T00:19:50.718Z,12.21
2023-04-13T00:20:50.761Z,12.55
2023-04-13T00:21:50.799Z,12.23
2023-04-13T00:22:50.827Z,12.08
2023-04-13T00:23:50.834Z,12.05
2023-04-13T00:24:50.887Z,12.25
2023-04-13T00:25:50.902Z,12.18
2023-04-13T00:26:50.954Z,11.93
2023-04-13T00:27:50.948Z,12.00
2023-04-13T00:28:50.987Z,11.98
2023-04-13T00:29:51.047Z,11.98
2023-04-13T00:30:51.104Z,11.85
2023-04-13T00:31:51.089Z,11.66
2023-04-13T00:32:51.112Z,11.93
2023-04-13T00:33:51.147Z,11.92
2023-04-13T00:34:51.169Z,11.81
2023-04-13T00:35:51.915Z,11.72
2023-04-13T00:36:51.230Z,11.64
2023-04-13T00:37:51.243Z,11.66
2023-04-13T00:38:51.285Z,11.70
2023-04-13T00:39:51.321Z,11.67
2023-04-13T00:40:51.371Z,11.63
2023-04-13T00:41:51.399Z,11.80
2023-04-13T00:42:51.390Z,11.78
2023-04-13T00:43:51.516Z,11.91
2023-04-13T00:44:51.451Z,11.29
2023-04-13T00:45:51.519Z,11.42
2023-04-13T00:46:51.628Z,11.50
2023-04-13T00:47:51.536Z,11.50
2023-04-13T00:48:51.602Z,11.43
2023-04-13T00:49:51.624Z,11.34
2023-04-13T00:50:51.651Z,11.52
2023-04-13T00:51:51.677Z,11.23
2023-04-13T00:52:51.674Z,11.09
2023-04-13T00:53:51.713Z,11.49
2023-04-13T00:54:51.798Z,11.34
2023-04-13T00:55:51.843Z,11.08
2023-04-13T00:56:51.915Z,11.00
2023-04-13T00:57:51.840Z,10.90
2023-04-13T00:58:51.932Z,11.19
2023-04-13T00:59:51.860Z,11.30
2023-04-13T01:00:51.898Z,11.06
2023-04-13T01:01:51.978Z,10.95
2023-04-13T01:02:52.119Z,11.10
2023-04-13T01:03:52.019Z,10.92
2023-04-13T01:04:52.199Z,10.84
2023-04-13T01:05:52.057Z,10.81
2023-04-13T01:06:52.183Z,10.83
2023-04-13T01:07:52.145Z,10.91
2023-04-13T01:08:54.016Z,10.93
2023-04-13T01:09:52.240Z,10.63
2023-04-13T01:10:52.291Z,10.81
2023-04-13T01:11:52.357Z,10.46
2023-04-13T01:12:52.412Z,10.55
2023-04-13T01:13:52.523Z,10.35
2023-04-13T01:14:52.497Z,10.48
2023-04-13T01:15:52.588Z,10.33
2023-04-13T01:16:52.614Z,10.22
2023-04-13T01:17:53.512Z,9.95
2023-04-13T01:18:52.747Z,9.79
2023-04-13T01:19:52.800Z,10.09
2023-04-13T01:20:52.816Z,9.94
2023-04-13T01:21:52.854Z,10.05
2023-04-13T01:22:52.898Z,9.80
2023-04-13T01:23:52.966Z,9.96
2023-04-13T01:24:52.995Z,9.68
2023-04-13T01:25:53.114Z,9.50
2023-04-13T01:26:53.193Z,9.70
2023-04-13T01:27:53.173Z,9.54
2023-04-13T01:28:53.271Z,9.34
2023-04-13T01:29:53.250Z,9.27
2023-04-13T01:30:53.310Z,8.98
2023-04-13T01:31:53.421Z,9.08
2023-04-13T01:32:53.495Z,9.13
2023-04-13T01:33:53.481Z,8.97
2023-04-13T01:34:53.546Z,8.86
2023-04-13T01:35:53.595Z,8.82
2023-04-13T01:36:54.549Z,8.96
2023-04-13T01:37:53.684Z,8.65
2023-04-13T01:38:53.777Z,8.68
2023-04-13T01:39:53.766Z,8.50
2023-04-13T01:40:53.877Z,8.24
2023-04-13T01:41:53.875Z,8.24
2023-04-13T01:42:53.983Z,8.26
2023-04-13T01:43:54.085Z,8.04
2023-04-13T01:44:54.047Z,8.14
2023-04-13T01:45:54.128Z,7.88
2023-04-13T01:46:54.369Z,8.16
2023-04-13T01:47:54.274Z,7.95
2023-04-13T01:48:54.338Z,8.02
2023-04-13T01:49:54.351Z,7.94
2023-04-13T01:50:54.470Z,7.84
2023-04-13T01:51:54.477Z,7.96
2023-04-13T01:52:54.508Z,7.77
2023-04-13T01:53:54.588Z,7.60
2023-04-13T01:54:54.630Z,7.71
2023-04-13T01:55:54.741Z,7.56
2023-04-13T01:56:54.741Z,7.45
2023-04-13T01:57:54.821Z,7.38
2023-04-13T01:58:54.933Z,7.39
2023-04-13T01:59:54.925Z,7.36
2023-04-13T02:00:55.054Z,7.32
2023-04-13T02:01:55.080Z,7.17
2023-04-13T02:02:56.060Z,7.08
2023-04-13T02:03:55.301Z,7.28
2023-04-13T02:04:55.225Z,7.23
2023-04-13T02:05:55.265Z,7.08
2023-04-13T02:06:55.312Z,7.21
2023-04-13T02:07:55.405Z,7.19
2023-04-13T02:08:55.521Z,7.13
2023-04-13T02:09:55.499Z,7.04
2023-04-13T02:10:55.564Z,7.00
2023-04-13T02:11:55.628Z,6.92
2023-04-13T02:12:55.773Z,6.87
2023-04-13T02:13:55.767Z,6.85
2023-04-13T02:14:55.818Z,6.80
2023-04-13T02:15:55.912Z,6.70
2023-04-13T02:16:55.988Z,6.88
2023-04-13T02:17:56.015Z,6.61
2023-04-13T02:18:56.084Z,6.74
2023-04-13T02:19:56.460Z,6.76
2023-04-13T02:20:56.158Z,6.55
2023-04-13T02:21:56.250Z,6.58
2023-04-13T02:22:56.268Z,6.40
2023-04-13T02:23:56.510Z,6.56
2023-04-13T02:24:56.411Z,6.53
2023-04-13T02:25:56.490Z,6.42
2023-04-13T02:26:56.529Z,6.39
2023-04-13T02:27:56.643Z,6.48
2023-04-13T02:28:56.650Z,6.19
2023-04-13T02:29:56.720Z,6.27
2023-04-13T02:30:56.768Z,6.16
2023-04-13T02:31:56.866Z,6.16
2023-04-13T02:32:56.929Z,5.90
2023-04-13T02:33:57.090Z,5.89
2023-04-13T02:34:57.044Z,5.95
2023-04-13T02:35:57.095Z,5.95
2023-04-13T02:36:57.146Z,5.92
2023-04-13T02:37:57.299Z,6.03
2023-04-13T02:38:57.283Z,5.71
2023-04-13T02:39:57.339Z,5.78
2023-04-13T02:40:57.449Z,5.86
2023-04-13T02:41:57.469Z,5.75
2023-04-13T02:42:57.564Z,5.73
2023-04-13T02:43:57.934Z,5.79
2023-04-13T02:44:57.665Z,5.77
2023-04-13T02:45:57.762Z,5.59
2023-04-13T02:46:57.798Z,5.61
2023-04-13T02:47:57.938Z,5.51
2023-04-13T02:48:57.947Z,5.42
2023-04-13T02:49:58.011Z,5.37
2023-04-13T02:50:58.079Z,5.49
2023-04-13T02:51:58.233Z,5.47
2023-04-13T02:52:58.208Z,5.47
2023-04-13T02:53:58.321Z,5.47
2023-04-13T02:54:58.369Z,5.37
2023-04-13T02:55:58.427Z,5.35
2023-04-13T02:56:58.436Z,5.36
2023-04-13T02:57:58.466Z,5.35
2023-04-13T02:58:58.491Z,5.11
2023-04-13T02:59:58.579Z,5.15
2023-04-13T03:00:58.594Z,5.22
2023-04-13T03:01:58.754Z,5.15
2023-04-13T03:02:58.665Z,5.23
2023-04-13T03:03:58.773Z,5.17
2023-04-13T03:04:58.781Z,5.27
2023-04-13T03:05:58.740Z,5.15
2023-04-13T03:06:58.790Z,5.16
2023-04-13T03:07:58.812Z,5.04
2023-04-13T03:08:58.774Z,5.03
2023-04-13T03:09:58.806Z,4.95
2023-04-13T03:10:58.833Z,4.91
2023-04-13T03:11:58.914Z,4.90
2023-04-13T03:12:58.974Z,4.75
2023-04-13T03:13:59.574Z,4.82
2023-04-13T03:15:01.773Z,4.82
2023-04-13T03:15:59.071Z,4.83
2023-04-13T03:16:59.137Z,4.83
2023-04-13T03:17:59.277Z,4.78
2023-04-13T03:18:59.184Z,4.71
2023-04-13T03:19:59.218Z,4.65
2023-04-13T03:20:59.222Z,4.68
2023-04-13T03:21:59.245Z,4.67
2023-04-13T03:22:59.330Z,4.61
2023-04-13T03:23:59.672Z,4.58
2023-04-13T03:24:59.397Z,4.47
2023-04-13T03:25:59.365Z,4.54
2023-04-13T03:26:59.359Z,4.51
2023-04-13T03:27:59.399Z,4.46
2023-04-13T03:28:59.420Z,4.30
2023-04-13T03:29:59.476Z,4.39
2023-04-13T03:30:59.545Z,4.39
2023-04-13T03:31:59.513Z,4.41
2023-04-13T03:32:59.636Z,4.37
2023-04-13T03:33:59.698Z,4.37
2023-04-13T03:34:59.618Z,4.20
2023-04-13T03:35:59.604Z,4.16
2023-04-13T03:36:59.628Z,4.16
2023-04-13T03:37:59.650Z,4.15
2023-04-13T03:38:59.660Z,4.21
2023-04-13T03:39:59.695Z,4.14
2023-04-13T03:40:59.725Z,4.13
2023-04-13T03:41:59.748Z,4.10
2023-04-13T03:42:59.760Z,4.06
2023-04-13T03:44:00.054Z,3.96
2023-04-13T03:44:59.803Z,3.97
2023-04-13T03:45:59.856Z,4.00
2023-04-13T03:46:59.848Z,4.01
2023-04-13T03:47:59.988Z,3.97
2023-04-13T03:48:59.953Z,3.95
2023-04-13T03:49:59.962Z,3.92
2023-04-13T03:50:59.957Z,3.94
2023-04-13T03:51:59.988Z,3.84
2023-04-13T03:53:00.046Z,3.63
2023-04-13T03:54:00.497Z,3.58
2023-04-13T03:55:00.073Z,3.64
2023-04-13T03:56:00.141Z,3.69
2023-04-13T03:57:00.183Z,3.70
2023-04-13T03:58:00.141Z,3.70
2023-04-13T03:59:00.150Z,3.70
2023-04-13T04:00:00.205Z,3.72
2023-04-13T04:01:00.209Z,3.78
2023-04-13T04:02:00.254Z,3.75
2023-04-13T04:03:00.343Z,3.66
2023-04-13T04:04:00.692Z,3.63
2023-04-13T04:05:00.436Z,3.62
2023-04-13T04:06:00.321Z,3.62
2023-04-13T04:07:00.355Z,3.54
2023-04-13T04:08:00.369Z,3.54
2023-04-13T04:09:00.396Z,3.54
2023-04-13T04:10:00.428Z,3.55
2023-04-13T04:11:00.494Z,3.54
2023-04-13T04:12:00.466Z,3.54
2023-04-13T04:13:00.494Z,3.55
2023-04-13T04:14:00.784Z,3.48
2023-04-13T04:15:00.547Z,3.44
2023-04-13T04:16:00.622Z,3.52
2023-04-13T04:17:00.602Z,3.50
2023-04-13T04:18:00.699Z,3.44
2023-04-13T04:19:00.717Z,3.38
2023-04-13T04:20:00.677Z,3.34
2023-04-13T04:21:02.562Z,3.45
2023-04-13T04:22:00.747Z,3.41
2023-04-13T04:23:00.757Z,3.30
2023-04-13T04:24:00.861Z,3.34
2023-04-13T04:25:00.786Z,3.34
2023-04-13T04:26:00.983Z,3.30
2023-04-13T04:27:00.897Z,3.25
2023-04-13T04:28:00.960Z,3.33
2023-04-13T04:29:01.008Z,3.23
2023-04-13T04:30:01.065Z,3.28
2023-04-13T04:31:01.103Z,3.29
2023-04-13T04:32:01.196Z,3.28
2023-04-13T04:33:01.165Z,3.29
2023-04-13T04:34:01.262Z,3.29
2023-04-13T04:35:01.179Z,3.29
2023-04-13T04:36:01.230Z,3.28
2023-04-13T04:37:03.578Z,3.24
2023-04-13T04:38:01.334Z,3.29
2023-04-13T04:39:01.298Z,3.29
2023-04-13T04:40:01.361Z,3.25
2023-04-13T04:41:01.344Z,3.30
2023-04-13T04:42:01.362Z,3.23
2023-04-13T04:43:01.396Z,3.29
2023-04-13T04:44:01.435Z,3.22
2023-04-13T04:45:01.483Z,3.20
2023-04-13T04:46:01.564Z,3.25
2023-04-13T04:47:01.509Z,3.25
2023-04-13T04:48:02.529Z,3.22
2023-04-13T04:49:01.560Z,3.18
2023-04-13T04:50:01.596Z,3.14
2023-04-13T04:51:02.616Z,3.07
2023-04-13T04:52:02.528Z,3.11
2023-04-13T04:53:02.505Z,3.05
2023-04-13T04:54:01.807Z,3.08
2023-04-13T04:55:01.754Z,3.06
2023-04-13T04:56:02.016Z,3.04
2023-04-13T04:57:01.878Z,3.04
2023-04-13T04:58:01.865Z,3.05
2023-04-13T04:59:01.999Z,3.06
2023-04-13T05:00:01.913Z,3.07
2023-04-13T05:01:02.429Z,3.04
2023-04-13T05:02:01.924Z,3.07
2023-04-13T05:03:02.065Z,3.07
2023-04-13T05:04:02.530Z,3.05
2023-04-13T05:05:02.049Z,2.96
2023-04-13T05:06:02.058Z,2.97
2023-04-13T05:07:02.217Z,3.05
2023-04-13T05:08:02.069Z,3.05
2023-04-13T05:09:02.141Z,3.08
2023-04-13T05:10:02.299Z,2.95
2023-04-13T05:11:02.205Z,2.92
2023-04-13T05:12:02.233Z,2.91
2023-04-13T05:13:02.280Z,2.88
2023-04-13T05:14:02.381Z,2.89
2023-04-13T05:15:02.405Z,2.90
2023-04-13T05:16:02.425Z,2.92
2023-04-13T05:17:02.380Z,2.95
2023-04-13T05:18:02.446Z,2.95
2023-04-13T05:19:02.659Z,3.00
2023-04-13T05:20:02.490Z,2.87
2023-04-13T05:21:02.501Z,2.87
2023-04-13T05:22:02.537Z,2.87
2023-04-13T05:23:02.592Z,2.88
2023-04-13T05:24:02.596Z,2.88
2023-04-13T05:25:02.641Z,2.88
2023-04-13T05:26:03.568Z,2.90
2023-04-13T05:27:02.759Z,2.89
2023-04-13T05:28:03.523Z,2.97
2023-04-13T05:29:03.559Z,2.87
2023-04-13T05:30:03.626Z,2.91
2023-04-13T05:31:03.665Z,2.87
2023-04-13T05:32:03.036Z,2.69
2023-04-13T05:33:03.082Z,2.77
2023-04-13T05:34:03.153Z,2.87
2023-04-13T05:35:03.125Z,2.86
2023-04-13T05:36:03.897Z,2.76
2023-04-13T05:37:03.099Z,2.83
2023-04-13T05:38:03.431Z,2.86
2023-04-13T05:39:03.205Z,2.82
2023-04-13T05:40:03.206Z,2.89
2023-04-13T05:41:03.231Z,2.89
2023-04-13T05:42:03.220Z,2.83
2023-04-13T05:43:03.229Z,2.82
2023-04-13T05:44:03.284Z,2.87
2023-04-13T05:45:03.291Z,2.68
2023-04-13T05:46:03.389Z,2.64
2023-04-13T05:47:03.551Z,2.66
2023-04-13T05:48:03.913Z,2.64
2023-04-13T05:49:03.512Z,2.72
2023-04-13T05:50:03.436Z,2.67
2023-04-13T05:51:03.534Z,2.66
2023-04-13T05:52:03.546Z,2.61
2023-04-13T05:53:03.566Z,2.59
2023-04-13T05:54:03.655Z,2.58
2023-04-13T05:55:03.669Z,2.51
2023-04-13T05:56:03.683Z,2.51
2023-04-13T05:57:03.752Z,2.46
2023-04-13T05:58:03.844Z,2.48
2023-04-13T05:59:03.883Z,2.48
2023-04-13T06:00:03.954Z,2.46
2023-04-13T06:01:04.024Z,2.43
2023-04-13T06:02:04.100Z,2.38
2023-04-13T06:03:04.326Z,2.39
2023-04-13T06:04:04.371Z,2.29
2023-04-13T06:05:04.237Z,2.30
2023-04-13T06:06:04.307Z,2.31
2023-04-13T06:07:04.335Z,2.28
2023-04-13T06:08:04.378Z,2.27
2023-04-13T06:09:04.487Z,2.25
2023-04-13T06:10:05.037Z,2.22
2023-04-13T06:11:04.656Z,2.22
2023-04-13T06:12:04.977Z,2.23
2023-04-13T06:13:04.811Z,2.17
2023-04-13T06:14:04.870Z,2.18
2023-04-13T06:15:04.838Z,2.14
2023-04-13T06:16:05.145Z,2.14
2023-04-13T06:17:05.335Z,2.08
2023-04-13T06:18:05.009Z,2.08
2023-04-13T06:19:05.254Z,2.08
2023-04-13T06:20:05.064Z,2.09
2023-04-13T06:21:05.163Z,2.11
2023-04-13T06:22:05.080Z,2.10
2023-04-13T06:23:05.020Z,2.06
2023-04-13T06:24:05.077Z,2.09
2023-04-13T06:25:05.059Z,2.09
2023-04-13T06:26:05.866Z,2.09
2023-04-13T06:27:05.118Z,2.08
2023-04-13T06:28:05.127Z,2.03
2023-04-13T06:29:05.200Z,2.08
2023-04-13T06:30:05.193Z,2.06
2023-04-13T06:31:05.371Z,2.03
2023-04-13T06:32:05.244Z,2.06
2023-04-13T06:33:05.385Z,2.04
2023-04-13T06:34:05.421Z,2.00
2023-04-13T06:35:05.322Z,1.96
2023-04-13T06:36:05.339Z,1.98
2023-04-13T06:37:10.739Z,1.98
2023-04-13T06:38:05.467Z,1.99
2023-04-13T06:39:05.441Z,1.98
2023-04-13T06:40:06.305Z,1.90
2023-04-13T06:41:05.653Z,1.95
2023-04-13T06:42:05.580Z,1.90
2023-04-13T06:43:08.868Z,1.91
2023-04-13T06:44:06.760Z,1.92
2023-04-13T06:45:05.721Z,1.93
2023-04-13T06:46:05.783Z,1.92
2023-04-13T06:47:05.848Z,1.77
2023-04-13T06:48:06.300Z,1.82
2023-04-13T06:49:06.868Z,1.90
2023-04-13T06:50:05.836Z,1.90
2023-04-13T06:51:06.715Z,1.82
2023-04-13T06:52:05.855Z,1.87
2023-04-13T06:53:05.910Z,1.88
2023-04-13T06:54:05.910Z,1.81
2023-04-13T06:55:05.960Z,1.75
2023-04-13T06:56:05.967Z,1.73
2023-04-13T06:57:06.024Z,1.49
2023-04-13T06:58:06.059Z,1.43
2023-04-13T06:59:06.817Z,1.44
2023-04-13T07:00:12.650Z,1.55
2023-04-13T07:01:07.610Z,1.47
2023-04-13T07:02:06.790Z,1.50
2023-04-13T07:03:06.595Z,1.34
2023-04-13T07:04:08.684Z,1.26
2023-04-13T07:05:07.903Z,1.29
2023-04-13T07:06:06.549Z,1.37
2023-04-13T07:07:10.803Z,1.46
2023-04-13T07:08:06.706Z,1.54
2023-04-13T07:09:08.641Z,1.56
2023-04-13T07:10:06.662Z,1.55
2023-04-13T07:11:06.592Z,1.58
2023-04-13T07:12:12.740Z,1.66
2023-04-13T07:13:06.625Z,1.56
2023-04-13T07:14:06.664Z,1.59
2023-04-13T07:15:06.659Z,1.66
2023-04-13T07:16:06.824Z,1.73
2023-04-13T07:17:06.727Z,1.83
2023-04-13T07:18:06.776Z,1.80
2023-04-13T07:19:07.016Z,1.96
2023-04-13T07:20:06.932Z,1.92
2023-04-13T07:21:08.426Z,2.04
2023-04-13T07:22:07.047Z,2.09
2023-04-13T07:23:06.919Z,2.13
2023-04-13T07:24:06.826Z,2.09
2023-04-13T07:25:06.977Z,2.26
2023-04-13T07:26:07.013Z,2.25
2023-04-13T07:27:08.225Z,2.20
2023-04-13T07:28:07.241Z,2.20
2023-04-13T07:29:07.041Z,2.21
2023-04-13T07:30:07.117Z,2.20
2023-04-13T07:31:07.159Z,2.29
2023-04-13T07:32:07.144Z,2.29
2023-04-13T07:33:07.225Z,2.19
2023-04-13T07:34:07.565Z,2.14
2023-04-13T07:35:07.357Z,2.14
2023-04-13T07:36:07.097Z,2.14
2023-04-13T07:37:07.156Z,2.16
2023-04-13T07:38:07.177Z,2.15
2023-04-13T07:39:07.182Z,2.18
2023-04-13T07:40:07.354Z,2.20
2023-04-13T07:41:07.278Z,2.26
2023-04-13T07:42:07.256Z,2.15
2023-04-13T07:43:07.506Z,2.21
2023-04-13T07:44:07.271Z,2.31
2023-04-13T07:45:09.397Z,2.52
2023-04-13T07:46:08.104Z,2.86
2023-04-13T07:47:07.523Z,2.93
2023-04-13T07:48:07.408Z,2.94
2023-04-13T07:49:07.485Z,2.95
2023-04-13T07:50:07.368Z,2.95
2023-04-13T07:51:07.392Z,2.94
2023-04-13T07:52:07.507Z,2.92
2023-04-13T07:53:07.447Z,2.94
2023-04-13T07:54:07.419Z,2.94
2023-04-13T07:55:07.493Z,2.98
2023-04-13T07:56:07.509Z,2.92
2023-04-13T07:57:07.545Z,2.94
2023-04-13T07:58:07.553Z,2.97
2023-04-13T07:59:07.525Z,3.05
2023-04-13T08:00:07.596Z,3.16
2023-04-13T08:01:07.606Z,3.33
2023-04-13T08:02:07.737Z,3.38
2023-04-13T08:03:07.825Z,3.41
2023-04-13T08:04:07.815Z,3.41
2023-04-13T08:05:07.950Z,3.13
2023-04-13T08:06:07.811Z,3.15
2023-04-13T08:07:07.653Z,3.22
2023-04-13T08:08:07.781Z,3.12
2023-04-13T08:09:07.756Z,3.09
2023-04-13T08:10:07.691Z,3.09
2023-04-13T08:11:07.729Z,3.10
2023-04-13T08:12:08.644Z,3.10
2023-04-13T08:13:07.849Z,3.12
2023-04-13T08:14:08.070Z,2.93
2023-04-13T08:15:08.093Z,3.03
2023-04-13T08:16:08.181Z,3.08
2023-04-13T08:17:08.104Z,2.93
2023-04-13T08:18:08.165Z,2.90
2023-04-13T08:19:08.194Z,2.86
2023-04-13T08:20:08.412Z,3.02
2023-04-13T08:21:08.321Z,3.18
2023-04-13T08:22:08.477Z,3.32
2023-04-13T08:23:10.114Z,3.40
2023-04-13T08:24:08.612Z,3.52
2023-04-13T08:25:08.556Z,3.65
2023-04-13T08:26:08.553Z,3.60
2023-04-13T08:27:08.652Z,3.55
2023-04-13T08:28:08.581Z,3.55
2023-04-13T08:29:08.650Z,3.64
2023-04-13T08:30:08.615Z,3.58
2023-04-13T08:31:08.688Z,3.45
2023-04-13T08:32:08.699Z,3.46
2023-04-13T08:33:08.647Z,3.55
2023-04-13T08:34:08.612Z,3.55
2023-04-13T08:35:08.691Z,3.48
2023-04-13T08:36:08.660Z,3.41
2023-04-13T08:37:08.685Z,3.51
2023-04-13T08:38:08.653Z,3.52
2023-04-13T08:39:08.665Z,3.52
2023-04-13T08:40:08.658Z,3.52
2023-04-13T08:41:08.756Z,3.51
2023-04-13T08:42:08.708Z,3.50
2023-04-13T08:43:08.873Z,3.50
2023-04-13T08:44:08.750Z,3.59
2023-04-13T08:45:08.734Z,3.50
2023-04-13T08:46:08.791Z,3.33
2023-04-13T08:47:08.839Z,3.51
2023-04-13T08:48:08.828Z,3.51
2023-04-13T08:49:08.976Z,3.46
2023-04-13T08:50:09.123Z,3.39
2023-04-13T08:51:09.059Z,3.46
2023-04-13T08:52:09.069Z,3.54
2023-04-13T08:53:10.210Z,3.45
2023-04-13T08:54:09.187Z,3.43
2023-04-13T08:55:10.274Z,3.57
2023-04-13T08:56:09.419Z,3.54
2023-04-13T08:57:09.585Z,3.41
2023-04-13T08:58:09.564Z,3.32
2023-04-13T08:59:09.649Z,3.20
2023-04-13T09:00:09.706Z,3.18
2023-04-13T09:01:10.088Z,3.16
2023-04-13T09:02:10.863Z,3.19
2023-04-13T09:03:12.678Z,3.15
2023-04-13T09:04:10.209Z,3.15
2023-04-13T09:05:10.154Z,3.16
2023-04-13T09:06:10.025Z,3.18
2023-04-13T09:07:10.521Z,3.19
2023-04-13T09:08:10.166Z,3.21
2023-04-13T09:09:10.101Z,3.11
2023-04-13T09:10:10.277Z,3.08
2023-04-13T09:11:15.118Z,3.14
2023-04-13T09:12:10.346Z,3.14
2023-04-13T09:13:10.191Z,3.17
2023-04-13T09:14:10.179Z,3.15
2023-04-13T09:15:10.217Z,3.22
2023-04-13T09:16:10.216Z,3.10
2023-04-13T09:17:10.507Z,3.22
2023-04-13T09:18:10.435Z,3.16
2023-04-13T09:19:11.443Z,3.03
2023-04-13T09:20:10.325Z,3.16
2023-04-13T09:21:10.357Z,3.04
2023-04-13T09:22:10.326Z,3.16
2023-04-13T09:23:10.698Z,3.07
2023-04-13T09:24:11.120Z,3.07
2023-04-13T09:25:12.117Z,3.12
2023-04-13T09:26:10.817Z,3.13
2023-04-13T09:27:10.452Z,3.14
2023-04-13T09:28:10.523Z,3.19
2023-04-13T09:29:10.609Z,3.07
2023-04-13T09:30:10.482Z,3.00
2023-04-13T09:31:10.661Z,3.18
2023-04-13T09:32:10.528Z,3.15
2023-04-13T09:33:10.763Z,3.13
2023-04-13T09:34:10.676Z,3.15
2023-04-13T09:35:11.134Z,3.18
2023-04-13T09:36:10.856Z,3.21
2023-04-13T09:37:10.822Z,3.05
2023-04-13T09:38:10.936Z,3.12
2023-04-13T09:39:11.008Z,3.13
2023-04-13T09:40:11.084Z,3.08
2023-04-13T09:41:11.255Z,3.04
2023-04-13T09:42:11.277Z,3.05
2023-04-13T09:43:11.292Z,3.04
2023-04-13T09:44:11.367Z,3.05
2023-04-13T09:45:11.467Z,3.09
2023-04-13T09:46:11.641Z,2.99
2023-04-13T09:47:11.668Z,3.00
2023-04-13T09:48:11.740Z,2.98
2023-04-13T09:49:12.003Z,3.08
2023-04-13T09:50:11.940Z,3.09
2023-04-13T09:51:12.029Z,3.09
2023-04-13T09:52:12.109Z,3.10
2023-04-13T09:53:12.263Z,3.05
2023-04-13T09:54:12.346Z,3.03
2023-04-13T09:55:12.292Z,2.98
2023-04-13T09:56:12.360Z,3.01
2023-04-13T09:57:12.370Z,3.04
2023-04-13T09:58:12.322Z,2.96
2023-04-13T09:59:12.404Z,2.92
2023-04-13T10:00:12.433Z,2.97
2023-04-13T10:01:12.489Z,2.92
2023-04-13T10:02:13.255Z,3.00
2023-04-13T10:03:12.626Z,2.96
2023-04-13T10:04:12.785Z,2.81
2023-04-13T10:05:12.686Z,2.99
2023-04-13T10:06:12.870Z,2.85
2023-04-13T10:07:12.818Z,2.92
2023-04-13T10:08:13.000Z,3.18
2023-04-13T10:09:13.076Z,3.20
2023-04-13T10:10:13.175Z,3.18
2023-04-13T10:11:13.131Z,3.25
2023-04-13T10:12:14.205Z,3.29
2023-04-13T10:13:21.617Z,3.35
2023-04-13T10:14:14.510Z,3.35
2023-04-13T10:15:13.501Z,3.37
2023-04-13T10:16:13.479Z,3.41
2023-04-13T10:17:13.362Z,3.51
2023-04-13T10:18:13.453Z,3.36
2023-04-13T10:19:14.784Z,3.40
2023-04-13T10:20:13.691Z,3.49
2023-04-13T10:21:13.491Z,3.60
2023-04-13T10:22:13.461Z,3.87
2023-04-13T10:23:13.528Z,3.89
2023-04-13T10:24:13.581Z,3.81
2023-04-13T10:25:18.661Z,3.83
2023-04-13T10:26:14.608Z,3.84
2023-04-13T10:27:13.602Z,3.86
2023-04-13T10:28:13.578Z,3.88
2023-04-13T10:29:14.066Z,3.98
2023-04-13T10:30:13.713Z,4.12
2023-04-13T10:31:14.323Z,4.05
2023-04-13T10:32:13.649Z,4.21
2023-04-13T10:33:13.668Z,4.21
2023-04-13T10:34:14.026Z,4.22
2023-04-13T10:35:13.690Z,4.23
2023-04-13T10:36:13.688Z,4.24
2023-04-13T10:37:13.716Z,4.31
2023-04-13T10:38:13.869Z,4.34
2023-04-13T10:39:16.813Z,4.36
2023-04-13T10:40:13.931Z,4.47
2023-04-13T10:41:13.834Z,4.43
2023-04-13T10:42:14.212Z,4.47
2023-04-13T10:43:13.832Z,4.54
2023-04-13T10:44:13.903Z,4.47
2023-04-13T10:45:14.228Z,4.49
2023-04-13T10:46:14.022Z,4.52
2023-04-13T10:47:15.697Z,4.47
2023-04-13T10:48:14.014Z,4.43
2023-04-13T10:49:15.708Z,4.49
2023-04-13T10:50:14.017Z,4.52
2023-04-13T10:51:14.049Z,4.53
2023-04-13T10:52:14.022Z,4.49
2023-04-13T10:53:14.040Z,4.53
2023-04-13T10:54:14.074Z,4.46
2023-04-13T10:55:14.159Z,4.53
2023-04-13T10:56:14.301Z,4.51
2023-04-13T10:57:14.109Z,4.53
2023-04-13T10:58:15.179Z,4.59
2023-04-13T10:59:14.304Z,4.61
2023-04-13T11:00:14.267Z,4.62
2023-04-13T11:01:14.261Z,4.66
2023-04-13T11:02:14.307Z,4.66
2023-04-13T11:03:14.414Z,4.65
2023-04-13T11:04:17.776Z,4.64
2023-04-13T11:05:14.428Z,4.65
2023-04-13T11:06:15.220Z,4.66
2023-04-13T11:07:14.494Z,4.68
2023-04-13T11:08:14.481Z,4.65
2023-04-13T11:09:16.770Z,4.75
2023-04-13T11:10:14.699Z,4.83
2023-04-13T11:11:15.137Z,4.83
2023-04-13T11:12:14.748Z,4.85
2023-04-13T11:13:14.674Z,4.85
2023-04-13T11:14:14.633Z,4.85
2023-04-13T11:15:15.671Z,4.84
2023-04-13T11:16:14.737Z,4.70
2023-04-13T11:17:14.695Z,4.58
2023-04-13T11:18:14.687Z,4.53
2023-04-13T11:19:14.683Z,4.47
2023-04-13T11:20:14.850Z,4.47
2023-04-13T11:21:14.810Z,4.30
2023-04-13T11:22:14.797Z,4.16
2023-04-13T11:23:14.838Z,4.01
2023-04-13T11:24:14.941Z,3.89
2023-04-13T11:25:14.896Z,3.85
2023-04-13T11:26:14.875Z,3.68
2023-04-13T11:27:14.824Z,3.64
2023-04-13T11:28:14.891Z,3.54
2023-04-13T11:29:14.864Z,3.45
2023-04-13T11:30:14.900Z,3.30
2023-04-13T11:31:14.929Z,3.24
2023-04-13T11:32:15.998Z,3.18
2023-04-13T11:33:15.088Z,3.17
2023-04-13T11:34:15.148Z,3.08
2023-04-13T11:35:15.273Z,3.09
2023-04-13T11:36:15.230Z,3.09
2023-04-13T11:37:15.243Z,3.09
2023-04-13T11:38:15.243Z,3.10
2023-04-13T11:39:15.251Z,3.05
2023-04-13T11:40:15.316Z,3.03
2023-04-13T11:41:16.888Z,3.03
2023-04-13T11:42:15.352Z,3.05
2023-04-13T11:43:15.569Z,2.98
2023-04-13T11:44:15.504Z,2.98
2023-04-13T11:45:15.464Z,2.99
2023-04-13T11:46:15.963Z,2.92
2023-04-13T11:47:15.601Z,2.85
2023-04-13T11:48:15.601Z,2.82
2023-04-13T11:49:15.660Z,2.84
2023-04-13T11:50:15.931Z,2.76
2023-04-13T11:51:15.809Z,2.79
2023-04-13T11:52:17.688Z,2.83
2023-04-13T11:53:15.822Z,2.80
2023-04-13T11:54:15.912Z,2.87
2023-04-13T11:55:23.209Z,2.86
2023-04-13T11:56:17.003Z,2.87
2023-04-13T11:57:16.051Z,2.89
2023-04-13T11:58:16.196Z,2.95
2023-04-13T11:59:16.070Z,3.07
2023-04-13T12:00:16.038Z,3.17
2023-04-13T12:01:23.367Z,3.27
2023-04-13T12:02:22.638Z,3.28
2023-04-13T12:03:34.685Z,3.28
2023-04-13T12:04:17.292Z,3.29
2023-04-13T12:05:16.387Z,3.32
2023-04-13T12:06:16.536Z,3.39
2023-04-13T12:07:16.604Z,3.49
2023-04-13T12:08:16.551Z,3.62
2023-04-13T12:09:17.867Z,3.62
2023-04-13T12:10:23.144Z,3.63
2023-04-13T12:11:40.465Z,3.64
2023-04-13T12:12:50.529Z,3.64
2023-04-13T12:13:22.857Z,3.64
2023-04-13T12:14:29.425Z,3.65
2023-04-13T12:16:18.340Z,3.66
2023-04-13T12:18:18.109Z,3.66
2023-04-13T12:19:19.240Z,3.65
2023-04-13T12:20:16.683Z,3.76
2023-04-13T12:21:16.827Z,3.92
2023-04-13T12:22:17.581Z,4.14
2023-04-13T12:23:22.279Z,3.66
2023-04-13T12:24:18.918Z,3.66
2023-04-13T12:25:17.773Z,3.77
2023-04-13T12:26:49.868Z,3.96
2023-04-13T12:27:19.145Z,3.66
2023-04-13T12:28:16.774Z,3.76
2023-04-13T12:29:16.728Z,3.66
2023-04-13T12:30:16.773Z,3.78
2023-04-13T12:31:16.813Z,3.98
2023-04-13T12:32:17.227Z,4.29
2023-04-13T12:33:16.837Z,4.75
2023-04-13T12:34:16.920Z,4.80
2023-04-13T12:35:16.911Z,4.79
2023-04-13T12:36:16.859Z,4.85
2023-04-13T12:37:16.871Z,4.81
2023-04-13T12:38:16.924Z,4.57
2023-04-13T12:39:16.905Z,4.58
2023-04-13T12:40:16.977Z,4.57
2023-04-13T12:41:16.936Z,4.56
2023-04-13T12:42:16.959Z,4.62
2023-04-13T12:43:16.964Z,4.61
2023-04-13T12:44:17.033Z,4.51
2023-04-13T12:45:17.059Z,4.55
2023-04-13T12:46:17.122Z,4.56
2023-04-13T12:47:17.191Z,4.50
2023-04-13T12:48:17.210Z,4.46
2023-04-13T12:49:17.176Z,4.42
2023-04-13T12:50:17.239Z,4.30
2023-04-13T12:51:17.312Z,4.12
2023-04-13T12:52:17.415Z,3.77
2023-04-13T12:53:17.466Z,3.87
2023-04-13T12:54:17.486Z,3.95
2023-04-13T12:55:17.524Z,3.88
2023-04-13T12:56:17.603Z,3.84
2023-04-13T12:57:17.657Z,3.84
2023-04-13T12:58:17.707Z,3.85
2023-04-13T12:59:17.686Z,3.85
2023-04-13T13:00:17.753Z,3.81
2023-04-13T13:01:17.710Z,3.72
2023-04-13T13:02:17.741Z,3.73
2023-04-13T13:03:17.833Z,3.67
2023-04-13T13:04:17.810Z,3.52
2023-04-13T13:05:17.784Z,3.51
2023-04-13T13:06:17.803Z,3.44
2023-04-13T13:07:17.810Z,3.53
2023-04-13T13:08:17.821Z,3.52
2023-04-13T13:09:17.901Z,3.49
2023-04-13T13:11:17.896Z,3.39
2023-04-13T13:12:17.888Z,3.34
2023-04-13T13:13:17.929Z,3.33
2023-04-13T13:14:17.975Z,3.36
2023-04-13T13:15:17.983Z,3.32
2023-04-13T13:16:18.047Z,3.30
2023-04-13T13:17:18.002Z,3.27
2023-04-13T13:18:18.011Z,3.24
2023-04-13T13:19:17.999Z,3.21